XAOSS MMML-MMTJ
Flight info
| Callsign | XAOSS |
|---|---|
| Flight time | 0h 42m |
| Altitude | 12000 |
| Route | MMML/10 MXL2A MXL DCT URSIX DCT SEVRA DCT MMTJ/SEVRA.D27-Y |
| Aircraft | SF50/L-SBGRY/C |
Departure
| Time | 2026-05-05 07:28 |
|---|---|
| Airport | General Rodolfo Sánchez Taboada International Airport (MMML) |
Arrival
| Time | 2026-05-05 08:10 |
|---|---|
| Airport | General Abelardo L. Rodriguez International Airport (MMTJ) |
| Time | Latitude | Longitude | Altitude | Speed | Heading |
|---|---|---|---|---|---|
| 2026-05-05 07:00 | 32.62865 | -115.24522 | 66 ft | 0 kts | 28° |
| 2026-05-05 07:20 | 32.62866 | -115.24522 | 66 ft | 0 kts | 348° |
| 2026-05-05 07:20 | 32.62867 | -115.24527 | 66 ft | 1 kts | 268° |
| 2026-05-05 07:20 | 32.62865 | -115.24535 | 66 ft | 2 kts | 251° |
| 2026-05-05 07:20 | 32.62860 | -115.24560 | 66 ft | 4 kts | 261° |
| 2026-05-05 07:21 | 32.62874 | -115.24587 | 66 ft | 5 kts | 345° |
| 2026-05-05 07:21 | 32.62900 | -115.24617 | 66 ft | 6 kts | 291° |
| 2026-05-05 07:21 | 32.62909 | -115.24638 | 66 ft | 5 kts | 306° |
| 2026-05-05 07:21 | 32.62938 | -115.24696 | 65 ft | 10 kts | 303° |
| 2026-05-05 07:22 | 32.62973 | -115.24772 | 64 ft | 10 kts | 302° |
| 2026-05-05 07:22 | 32.63028 | -115.24775 | 64 ft | 7 kts | 31° |
| 2026-05-05 07:22 | 32.63067 | -115.24750 | 64 ft | 5 kts | 26° |
| 2026-05-05 07:22 | 32.63105 | -115.24728 | 64 ft | 5 kts | 34° |
| 2026-05-05 07:23 | 32.63146 | -115.24699 | 63 ft | 7 kts | 30° |
| 2026-05-05 07:23 | 32.63180 | -115.24676 | 62 ft | 0 kts | 31° |
| 2026-05-05 07:23 | 32.63181 | -115.24676 | 62 ft | 0 kts | 28° |
| 2026-05-05 07:23 | 32.63186 | -115.24672 | 62 ft | 1 kts | 30° |
| 2026-05-05 07:24 | 32.63192 | -115.24668 | 62 ft | 1 kts | 28° |
| 2026-05-05 07:24 | 32.63206 | -115.24661 | 62 ft | 3 kts | 26° |
| 2026-05-05 07:24 | 32.63231 | -115.24645 | 62 ft | 5 kts | 26° |
| 2026-05-05 07:24 | 32.63268 | -115.24642 | 62 ft | 5 kts | 321° |
| 2026-05-05 07:25 | 32.63296 | -115.24696 | 62 ft | 10 kts | 298° |
| 2026-05-05 07:25 | 32.63343 | -115.24802 | 62 ft | 16 kts | 302° |
| 2026-05-05 07:25 | 32.63406 | -115.24940 | 62 ft | 20 kts | 296° |
| 2026-05-05 07:25 | 32.63477 | -115.25103 | 62 ft | 23 kts | 294° |
| 2026-05-05 07:26 | 32.63550 | -115.25255 | 64 ft | 18 kts | 304° |
| 2026-05-05 07:26 | 32.63604 | -115.25342 | 66 ft | 8 kts | 229° |
| 2026-05-05 07:26 | 32.63583 | -115.25327 | 65 ft | 3 kts | 120° |
| 2026-05-05 07:26 | 32.63562 | -115.25283 | 65 ft | 23 kts | 120° |
| 2026-05-05 07:27 | 32.63355 | -115.24836 | 62 ft | 94 kts | 119° |
| 2026-05-05 07:27 | 32.62950 | -115.23994 | 81 ft | 138 kts | 118° |
| 2026-05-05 07:27 | 32.62489 | -115.22890 | 314 ft | 152 kts | 121° |
| 2026-05-05 07:27 | 32.61925 | -115.21770 | 618 ft | 159 kts | 127° |
| 2026-05-05 07:28 | 32.61382 | -115.20657 | 1063 ft | 155 kts | 120° |
| 2026-05-05 07:28 | 32.60916 | -115.19523 | 1424 ft | 158 kts | 122° |
| 2026-05-05 07:28 | 32.60415 | -115.18307 | 1678 ft | 168 kts | 122° |
| 2026-05-05 07:28 | 32.59880 | -115.17041 | 1924 ft | 175 kts | 122° |
| 2026-05-05 07:29 | 32.59328 | -115.15725 | 2178 ft | 180 kts | 121° |
| 2026-05-05 07:29 | 32.58769 | -115.14391 | 2423 ft | 184 kts | 121° |
| 2026-05-05 07:29 | 32.58196 | -115.13028 | 2669 ft | 186 kts | 121° |
| 2026-05-05 07:29 | 32.57619 | -115.11640 | 2916 ft | 188 kts | 122° |
| 2026-05-05 07:30 | 32.57031 | -115.10236 | 3161 ft | 190 kts | 120° |
| 2026-05-05 07:30 | 32.55996 | -115.07381 | 3649 ft | 195 kts | 94° |
| 2026-05-05 07:30 | 32.56433 | -115.05888 | 3914 ft | 194 kts | 47° |
| 2026-05-05 07:31 | 32.57547 | -115.05105 | 4165 ft | 185 kts | 4° |
| 2026-05-05 07:31 | 32.58736 | -115.05375 | 4409 ft | 170 kts | 320° |
| 2026-05-05 07:31 | 32.59355 | -115.06449 | 4660 ft | 156 kts | 277° |
| 2026-05-05 07:31 | 32.59556 | -115.07725 | 4904 ft | 157 kts | 277° |
| 2026-05-05 07:32 | 32.59788 | -115.08984 | 5148 ft | 159 kts | 278° |
| 2026-05-05 07:32 | 32.60046 | -115.10270 | 5389 ft | 160 kts | 279° |
| 2026-05-05 07:32 | 32.60315 | -115.11540 | 5640 ft | 160 kts | 279° |
| 2026-05-05 07:32 | 32.60595 | -115.12825 | 5870 ft | 161 kts | 280° |
| 2026-05-05 07:33 | 32.60884 | -115.14108 | 6086 ft | 161 kts | 279° |
| 2026-05-05 07:33 | 32.61175 | -115.15388 | 6325 ft | 161 kts | 280° |
| 2026-05-05 07:33 | 32.61468 | -115.16674 | 6566 ft | 161 kts | 280° |
| 2026-05-05 07:33 | 32.61761 | -115.17942 | 6804 ft | 160 kts | 280° |
| 2026-05-05 07:34 | 32.62056 | -115.19210 | 7043 ft | 160 kts | 279° |
| 2026-05-05 07:34 | 32.62350 | -115.20476 | 7285 ft | 159 kts | 280° |
| 2026-05-05 07:34 | 32.62642 | -115.21742 | 7522 ft | 158 kts | 280° |
| 2026-05-05 07:34 | 32.62933 | -115.22984 | 7763 ft | 157 kts | 279° |
| 2026-05-05 07:35 | 32.63053 | -115.24226 | 8006 ft | 150 kts | 262° |
| 2026-05-05 07:35 | 32.63007 | -115.25452 | 8252 ft | 149 kts | 264° |
| 2026-05-05 07:35 | 32.62956 | -115.26673 | 8492 ft | 148 kts | 263° |
| 2026-05-05 07:35 | 32.62905 | -115.27877 | 8730 ft | 147 kts | 263° |
| 2026-05-05 07:36 | 32.62854 | -115.29073 | 8970 ft | 145 kts | 264° |
| 2026-05-05 07:36 | 32.62803 | -115.30266 | 9214 ft | 144 kts | 263° |
| 2026-05-05 07:36 | 32.62750 | -115.31444 | 9455 ft | 142 kts | 262° |
| 2026-05-05 07:36 | 32.62693 | -115.32620 | 9698 ft | 141 kts | 263° |
| 2026-05-05 07:37 | 32.62642 | -115.33765 | 9936 ft | 140 kts | 262° |
| 2026-05-05 07:37 | 32.62587 | -115.34908 | 10189 ft | 138 kts | 263° |
| 2026-05-05 07:37 | 32.62536 | -115.36045 | 10418 ft | 137 kts | 263° |
| 2026-05-05 07:37 | 32.62484 | -115.37162 | 10677 ft | 135 kts | 263° |
| 2026-05-05 07:38 | 32.62432 | -115.38268 | 10908 ft | 134 kts | 263° |
| 2026-05-05 07:38 | 32.62379 | -115.39368 | 11130 ft | 133 kts | 263° |
| 2026-05-05 07:38 | 32.62329 | -115.40447 | 11367 ft | 131 kts | 263° |
| 2026-05-05 07:38 | 32.62278 | -115.41515 | 11607 ft | 129 kts | 263° |
| 2026-05-05 07:39 | 32.62230 | -115.42565 | 11859 ft | 128 kts | 263° |
| 2026-05-05 07:39 | 32.62179 | -115.43617 | 12023 ft | 131 kts | 263° |
| 2026-05-05 07:39 | 32.62125 | -115.44744 | 12069 ft | 142 kts | 263° |
| 2026-05-05 07:39 | 32.62068 | -115.45953 | 12075 ft | 153 kts | 263° |
| 2026-05-05 07:40 | 32.62003 | -115.47255 | 12063 ft | 161 kts | 264° |
| 2026-05-05 07:40 | 32.61941 | -115.48595 | 12076 ft | 166 kts | 263° |
| 2026-05-05 07:40 | 32.61874 | -115.49973 | 12059 ft | 170 kts | 263° |
| 2026-05-05 07:40 | 32.61807 | -115.51385 | 12074 ft | 173 kts | 263° |
| 2026-05-05 07:41 | 32.61738 | -115.52824 | 12066 ft | 175 kts | 264° |
| 2026-05-05 07:41 | 32.61670 | -115.54260 | 12064 ft | 174 kts | 264° |
| 2026-05-05 07:41 | 32.61600 | -115.55696 | 12068 ft | 174 kts | 264° |
| 2026-05-05 07:41 | 32.61531 | -115.57124 | 12063 ft | 174 kts | 264° |
| 2026-05-05 07:42 | 32.61462 | -115.58551 | 12065 ft | 173 kts | 264° |
| 2026-05-05 07:42 | 32.61392 | -115.59980 | 12075 ft | 174 kts | 263° |
| 2026-05-05 07:42 | 32.61324 | -115.61414 | 12076 ft | 175 kts | 263° |
| 2026-05-05 07:42 | 32.61253 | -115.62857 | 12076 ft | 176 kts | 264° |
| 2026-05-05 07:43 | 32.61182 | -115.64314 | 12071 ft | 176 kts | 263° |
| 2026-05-05 07:43 | 32.61110 | -115.65750 | 12069 ft | 177 kts | 263° |
| 2026-05-05 07:43 | 32.61039 | -115.67196 | 12069 ft | 176 kts | 263° |
| 2026-05-05 07:43 | 32.60967 | -115.68651 | 12068 ft | 176 kts | 263° |
| 2026-05-05 07:44 | 32.60895 | -115.70097 | 12062 ft | 176 kts | 263° |
| 2026-05-05 07:44 | 32.60825 | -115.71537 | 12066 ft | 175 kts | 263° |
| 2026-05-05 07:44 | 32.60751 | -115.72989 | 12076 ft | 176 kts | 263° |
| 2026-05-05 07:44 | 32.60680 | -115.74432 | 12086 ft | 177 kts | 264° |
| 2026-05-05 07:45 | 32.60609 | -115.75881 | 12086 ft | 177 kts | 263° |
| 2026-05-05 07:45 | 32.60536 | -115.77349 | 12085 ft | 177 kts | 263° |
| 2026-05-05 07:45 | 32.60463 | -115.78818 | 12084 ft | 178 kts | 263° |
| 2026-05-05 07:45 | 32.60386 | -115.80283 | 12085 ft | 179 kts | 263° |
| 2026-05-05 07:46 | 32.60316 | -115.81747 | 12090 ft | 179 kts | 263° |
| 2026-05-05 07:46 | 32.60261 | -115.83220 | 12086 ft | 181 kts | 272° |
| 2026-05-05 07:46 | 32.60281 | -115.84690 | 12110 ft | 177 kts | 260° |
| 2026-05-05 07:46 | 32.60162 | -115.86146 | 12113 ft | 178 kts | 263° |
| 2026-05-05 07:47 | 32.60062 | -115.87616 | 12111 ft | 178 kts | 263° |
| 2026-05-05 07:47 | 32.59974 | -115.89064 | 12121 ft | 177 kts | 263° |
| 2026-05-05 07:47 | 32.59884 | -115.90524 | 12120 ft | 177 kts | 263° |
| 2026-05-05 07:47 | 32.59800 | -115.91994 | 12106 ft | 177 kts | 263° |
| 2026-05-05 07:48 | 32.59721 | -115.93432 | 12122 ft | 177 kts | 263° |
| 2026-05-05 07:48 | 32.59645 | -115.94893 | 12131 ft | 178 kts | 263° |
| 2026-05-05 07:48 | 32.59566 | -115.96381 | 12122 ft | 180 kts | 264° |
| 2026-05-05 07:48 | 32.59491 | -115.97845 | 12122 ft | 179 kts | 263° |
| 2026-05-05 07:49 | 32.59413 | -115.99326 | 12143 ft | 179 kts | 263° |
| 2026-05-05 07:49 | 32.59334 | -116.00802 | 12147 ft | 179 kts | 264° |
| 2026-05-05 07:49 | 32.59258 | -116.02278 | 12143 ft | 180 kts | 263° |
| 2026-05-05 07:49 | 32.59179 | -116.03758 | 12149 ft | 186 kts | 263° |
| 2026-05-05 07:50 | 32.59093 | -116.05401 | 12156 ft | 213 kts | 264° |
| 2026-05-05 07:50 | 32.58993 | -116.07243 | 12140 ft | 234 kts | 264° |
| 2026-05-05 07:50 | 32.58889 | -116.09242 | 12131 ft | 249 kts | 264° |
| 2026-05-05 07:50 | 32.58775 | -116.11342 | 12130 ft | 261 kts | 264° |
| 2026-05-05 07:51 | 32.58661 | -116.13528 | 12128 ft | 268 kts | 265° |
| 2026-05-05 07:51 | 32.58546 | -116.15724 | 12128 ft | 273 kts | 264° |
| 2026-05-05 07:51 | 32.58422 | -116.17993 | 12128 ft | 274 kts | 264° |
| 2026-05-05 07:51 | 32.58306 | -116.20190 | 12102 ft | 264 kts | 264° |
| 2026-05-05 07:52 | 32.58192 | -116.22340 | 11987 ft | 259 kts | 264° |
| 2026-05-05 07:52 | 32.58079 | -116.24440 | 11740 ft | 255 kts | 264° |
| 2026-05-05 07:52 | 32.57966 | -116.26505 | 11497 ft | 251 kts | 264° |
| 2026-05-05 07:52 | 32.57854 | -116.28561 | 11244 ft | 248 kts | 265° |
| 2026-05-05 07:53 | 32.57744 | -116.30598 | 10979 ft | 247 kts | 265° |
| 2026-05-05 07:53 | 32.57632 | -116.32621 | 10730 ft | 246 kts | 265° |
| 2026-05-05 07:53 | 32.57525 | -116.34616 | 10499 ft | 244 kts | 264° |
| 2026-05-05 07:53 | 32.57411 | -116.36642 | 10246 ft | 244 kts | 265° |
| 2026-05-05 07:54 | 32.57303 | -116.38631 | 10004 ft | 244 kts | 265° |
| 2026-05-05 07:54 | 32.57185 | -116.40640 | 9762 ft | 244 kts | 265° |
| 2026-05-05 07:54 | 32.57074 | -116.42595 | 9514 ft | 236 kts | 265° |
| 2026-05-05 07:54 | 32.56959 | -116.44511 | 9262 ft | 230 kts | 265° |
| 2026-05-05 07:55 | 32.56845 | -116.46389 | 9006 ft | 225 kts | 265° |
| 2026-05-05 07:55 | 32.56729 | -116.48195 | 8750 ft | 221 kts | 265° |
| 2026-05-05 07:55 | 32.56609 | -116.50020 | 8483 ft | 219 kts | 265° |
| 2026-05-05 07:55 | 32.56495 | -116.51788 | 8239 ft | 217 kts | 265° |
| 2026-05-05 07:56 | 32.56375 | -116.53554 | 7986 ft | 215 kts | 265° |
| 2026-05-05 07:56 | 32.56252 | -116.55313 | 7732 ft | 213 kts | 265° |
| 2026-05-05 07:56 | 32.56119 | -116.57055 | 7476 ft | 212 kts | 265° |
| 2026-05-05 07:56 | 32.55978 | -116.58792 | 7224 ft | 212 kts | 265° |
| 2026-05-05 07:57 | 32.55835 | -116.60538 | 6962 ft | 212 kts | 265° |
| 2026-05-05 07:57 | 32.55689 | -116.62265 | 6696 ft | 212 kts | 265° |
| 2026-05-05 07:57 | 32.55535 | -116.63997 | 6441 ft | 212 kts | 265° |
| 2026-05-05 07:57 | 32.55384 | -116.65741 | 6182 ft | 212 kts | 268° |
| 2026-05-05 07:58 | 32.55579 | -116.67459 | 5907 ft | 211 kts | 269° |
| 2026-05-05 07:58 | 32.55549 | -116.69185 | 5675 ft | 211 kts | 267° |
| 2026-05-05 07:58 | 32.55472 | -116.70921 | 5432 ft | 211 kts | 266° |
| 2026-05-05 07:58 | 32.55517 | -116.72644 | 5184 ft | 211 kts | 277° |
| 2026-05-05 07:59 | 32.55105 | -116.74272 | 4928 ft | 216 kts | 232° |
| 2026-05-05 07:59 | 32.53791 | -116.75098 | 4688 ft | 225 kts | 191° |
| 2026-05-05 07:59 | 32.52242 | -116.74704 | 4462 ft | 232 kts | 158° |
| 2026-05-05 07:59 | 32.50739 | -116.74006 | 4217 ft | 231 kts | 163° |
| 2026-05-05 08:00 | 32.49196 | -116.73508 | 3972 ft | 229 kts | 169° |
| 2026-05-05 08:00 | 32.47646 | -116.73078 | 3725 ft | 229 kts | 169° |
| 2026-05-05 08:00 | 32.46076 | -116.72661 | 3486 ft | 228 kts | 172° |
| 2026-05-05 08:00 | 32.44606 | -116.73052 | 3238 ft | 220 kts | 218° |
| 2026-05-05 08:01 | 32.43803 | -116.74513 | 2973 ft | 216 kts | 260° |
| 2026-05-05 08:01 | 32.44089 | -116.76291 | 2767 ft | 231 kts | 299° |
| 2026-05-05 08:01 | 32.45288 | -116.77559 | 2516 ft | 237 kts | 323° |
| 2026-05-05 08:01 | 32.46658 | -116.78701 | 2264 ft | 239 kts | 317° |
| 2026-05-05 08:02 | 32.47675 | -116.80210 | 2020 ft | 238 kts | 300° |
| 2026-05-05 08:02 | 32.48299 | -116.82012 | 1747 ft | 239 kts | 301° |
| 2026-05-05 08:02 | 32.49180 | -116.83649 | 1704 ft | 230 kts | 294° |
| 2026-05-05 08:02 | 32.49886 | -116.85289 | 1682 ft | 218 kts | 293° |
| 2026-05-05 08:03 | 32.50563 | -116.86852 | 1678 ft | 206 kts | 294° |
| 2026-05-05 08:03 | 32.51180 | -116.88332 | 1675 ft | 197 kts | 295° |
| 2026-05-05 08:03 | 32.51776 | -116.89764 | 1675 ft | 191 kts | 294° |
| 2026-05-05 08:03 | 32.52347 | -116.91150 | 1677 ft | 186 kts | 294° |
| 2026-05-05 08:04 | 32.52909 | -116.92519 | 1670 ft | 183 kts | 294° |
| 2026-05-05 08:04 | 32.53489 | -116.93807 | 1332 ft | 172 kts | 300° |
| 2026-05-05 08:04 | 32.53904 | -116.94886 | 922 ft | 137 kts | 278° |
| 2026-05-05 08:04 | 32.53979 | -116.95946 | 493 ft | 114 kts | 279° |
| 2026-05-05 08:05 | 32.54082 | -116.96717 | 474 ft | 92 kts | 278° |
| 2026-05-05 08:05 | 32.54194 | -116.97588 | 648 ft | 120 kts | 275° |
| 2026-05-05 08:05 | 32.54317 | -116.98532 | 1083 ft | 101 kts | 274° |
| 2026-05-05 08:05 | 32.54022 | -116.99256 | 1312 ft | 109 kts | 207° |
| 2026-05-05 08:06 | 32.53213 | -116.99289 | 1518 ft | 120 kts | 180° |
| 2026-05-05 08:06 | 32.52465 | -116.98904 | 1774 ft | 129 kts | 130° |
| 2026-05-05 08:06 | 32.52348 | -116.97845 | 2005 ft | 132 kts | 94° |
| 2026-05-05 08:06 | 32.52048 | -116.96847 | 2183 ft | 129 kts | 118° |
| 2026-05-05 08:07 | 32.51803 | -116.95816 | 2193 ft | 135 kts | 98° |
| 2026-05-05 08:07 | 32.51732 | -116.94712 | 2305 ft | 133 kts | 96° |
| 2026-05-05 08:07 | 32.51604 | -116.93641 | 2422 ft | 133 kts | 100° |
| 2026-05-05 08:07 | 32.51541 | -116.92544 | 2456 ft | 135 kts | 77° |
| 2026-05-05 08:08 | 32.52007 | -116.91644 | 2469 ft | 124 kts | 37° |
| 2026-05-05 08:08 | 32.52786 | -116.91277 | 2415 ft | 118 kts | 356° |
| 2026-05-05 08:08 | 32.53496 | -116.91635 | 2191 ft | 110 kts | 309° |
| 2026-05-05 08:08 | 32.53625 | -116.92495 | 1341 ft | 125 kts | 268° |
| 2026-05-05 08:09 | 32.53634 | -116.93451 | 774 ft | 108 kts | 275° |
| 2026-05-05 08:09 | 32.53750 | -116.94272 | 604 ft | 97 kts | 277° |
| 2026-05-05 08:09 | 32.53853 | -116.95052 | 576 ft | 96 kts | 277° |
| 2026-05-05 08:09 | 32.53948 | -116.95838 | 480 ft | 88 kts | 278° |
| 2026-05-05 08:10 | 32.54036 | -116.96446 | 471 ft | 62 kts | 276° |
| 2026-05-05 08:10 | 32.54090 | -116.96894 | 462 ft | 42 kts | 279° |
| 2026-05-05 08:10 | 32.54145 | -116.97200 | 456 ft | 33 kts | 297° |
| 2026-05-05 08:10 | 32.54235 | -116.97343 | 458 ft | 13 kts | 311° |
| 2026-05-05 08:11 | 32.54276 | -116.97412 | 458 ft | 7 kts | 315° |
| 2026-05-05 08:11 | 32.54306 | -116.97455 | 459 ft | 4 kts | 306° |
| 2026-05-05 08:11 | 32.54329 | -116.97485 | 459 ft | 5 kts | 302° |
| 2026-05-05 08:11 | 32.54340 | -116.97520 | 460 ft | 2 kts | 281° |
| 2026-05-05 08:12 | 32.54345 | -116.97569 | 461 ft | 7 kts | 281° |
| 2026-05-05 08:12 | 32.54359 | -116.97649 | 463 ft | 12 kts | 276° |
| 2026-05-05 08:12 | 32.54375 | -116.97777 | 465 ft | 18 kts | 277° |
| 2026-05-05 08:12 | 32.54393 | -116.97821 | 466 ft | 5 kts | 43° |
| 2026-05-05 08:13 | 32.54451 | -116.97805 | 465 ft | 10 kts | 345° |
| 2026-05-05 08:13 | 32.54509 | -116.97810 | 466 ft | 9 kts | 8° |
| 2026-05-05 08:13 | 32.54535 | -116.97823 | 466 ft | 0 kts | 360° |